sensor_id;sensor_type;location;lat;lon;timestamp;pressure;altitude;pressure_sealevel;temperature;humidity
16190;BME280;41754;51.498;7.540;2023-05-23T00:01:17;100344.84;;;18.92;60.50
16190;BME280;41754;51.498;7.540;2023-05-23T00:03:45;100343.06;;;18.65;60.89
16190;BME280;41754;51.498;7.540;2023-05-23T00:06:18;100341.44;;;18.64;60.95
16190;BME280;41754;51.498;7.540;2023-05-23T00:08:49;100340.88;;;18.07;62.20
16190;BME280;41754;51.498;7.540;2023-05-23T00:11:17;100333.56;;;18.85;61.31
16190;BME280;41754;51.498;7.540;2023-05-23T00:13:45;100331.28;;;18.36;62.02
16190;BME280;41754;51.498;7.540;2023-05-23T00:16:13;100337.72;;;18.40;61.47
16190;BME280;41754;51.498;7.540;2023-05-23T00:18:41;100338.53;;;18.76;60.83
16190;BME280;41754;51.498;7.540;2023-05-23T00:21:11;100329.75;;;19.13;60.43
16190;BME280;41754;51.498;7.540;2023-05-23T00:23:39;100332.09;;;18.72;59.90
16190;BME280;41754;51.498;7.540;2023-05-23T00:26:09;100335.91;;;19.03;59.77
16190;BME280;41754;51.498;7.540;2023-05-23T00:28:41;100344.91;;;18.77;61.12
16190;BME280;41754;51.498;7.540;2023-05-23T00:31:08;100343.97;;;18.34;60.69
16190;BME280;41754;51.498;7.540;2023-05-23T00:33:36;100357.59;;;18.23;61.42
16190;BME280;41754;51.498;7.540;2023-05-23T00:36:04;100357.13;;;18.53;61.90
16190;BME280;41754;51.498;7.540;2023-05-23T00:38:32;100350.66;;;18.84;60.34
16190;BME280;41754;51.498;7.540;2023-05-23T00:41:00;100350.53;;;18.96;59.79
16190;BME280;41754;51.498;7.540;2023-05-23T00:43:30;100356.22;;;18.84;60.02
16190;BME280;41754;51.498;7.540;2023-05-23T00:45:58;100354.34;;;18.53;61.14
16190;BME280;41754;51.498;7.540;2023-05-23T00:48:27;100369.31;;;18.64;61.09
16190;BME280;41754;51.498;7.540;2023-05-23T00:50:56;100362.53;;;18.46;60.97
16190;BME280;41754;51.498;7.540;2023-05-23T00:53:24;100366.56;;;18.17;61.07
16190;BME280;41754;51.498;7.540;2023-05-23T00:55:52;100366.66;;;18.52;61.27
16190;BME280;41754;51.498;7.540;2023-05-23T00:58:20;100372.69;;;18.38;60.72
16190;BME280;41754;51.498;7.540;2023-05-23T01:00:50;100375.66;;;18.14;61.52
16190;BME280;41754;51.498;7.540;2023-05-23T01:03:20;100369.94;;;18.73;59.81
16190;BME280;41754;51.498;7.540;2023-05-23T01:05:49;100377.97;;;18.59;60.01
16190;BME280;41754;51.498;7.540;2023-05-23T01:08:18;100376.75;;;18.76;59.52
16190;BME280;41754;51.498;7.540;2023-05-23T01:10:46;100387.53;;;18.26;60.45
16190;BME280;41754;51.498;7.540;2023-05-23T01:13:20;100382.28;;;17.93;61.18
16190;BME280;41754;51.498;7.540;2023-05-23T01:15:56;100380.69;;;18.08;61.30
16190;BME280;41754;51.498;7.540;2023-05-23T01:18:33;100386.66;;;17.63;61.34
16190;BME280;41754;51.498;7.540;2023-05-23T01:21:06;100382.75;;;17.79;60.71
16190;BME280;41754;51.498;7.540;2023-05-23T01:24:08;100381.59;;;18.12;60.14
16190;BME280;41754;51.498;7.540;2023-05-23T01:26:56;100389.75;;;17.73;59.56
16190;BME280;41754;51.498;7.540;2023-05-23T01:29:31;100383.59;;;17.52;59.15
16190;BME280;41754;51.498;7.540;2023-05-23T01:32:02;100386.09;;;17.57;59.62
16190;BME280;41754;51.498;7.540;2023-05-23T01:34:34;100387.53;;;17.51;60.54
16190;BME280;41754;51.498;7.540;2023-05-23T01:37:07;100383.47;;;17.20;61.62
16190;BME280;41754;51.498;7.540;2023-05-23T01:39:35;100386.47;;;17.28;60.66
16190;BME280;41754;51.498;7.540;2023-05-23T01:42:03;100390.72;;;17.65;59.41
16190;BME280;41754;51.498;7.540;2023-05-23T01:44:33;100383.72;;;17.71;58.82
16190;BME280;41754;51.498;7.540;2023-05-23T01:47:03;100383.47;;;17.92;59.16
16190;BME280;41754;51.498;7.540;2023-05-23T01:49:33;100390.31;;;18.10;57.96
16190;BME280;41754;51.498;7.540;2023-05-23T01:52:03;100388.44;;;18.46;57.27
16190;BME280;41754;51.498;7.540;2023-05-23T01:54:32;100393.44;;;18.40;57.41
16190;BME280;41754;51.498;7.540;2023-05-23T01:57:01;100389.66;;;18.33;57.16
16190;BME280;41754;51.498;7.540;2023-05-23T01:59:30;100391.50;;;18.25;57.68
16190;BME280;41754;51.498;7.540;2023-05-23T02:02:00;100386.06;;;18.17;57.58
16190;BME280;41754;51.498;7.540;2023-05-23T02:04:28;100388.78;;;18.13;58.30
16190;BME280;41754;51.498;7.540;2023-05-23T02:06:57;100388.13;;;18.86;57.02
16190;BME280;41754;51.498;7.540;2023-05-23T02:09:25;100390.25;;;18.74;56.94
16190;BME280;41754;51.498;7.540;2023-05-23T02:11:53;100395.31;;;18.21;58.50
16190;BME280;41754;51.498;7.540;2023-05-23T02:14:21;100394.72;;;18.27;57.98
16190;BME280;41754;51.498;7.540;2023-05-23T02:16:49;100402.50;;;18.53;57.76
16190;BME280;41754;51.498;7.540;2023-05-23T02:19:20;100405.59;;;18.32;58.77
16190;BME280;41754;51.498;7.540;2023-05-23T02:21:48;100404.84;;;18.51;58.12
16190;BME280;41754;51.498;7.540;2023-05-23T02:24:17;100408.41;;;18.67;57.50
16190;BME280;41754;51.498;7.540;2023-05-23T02:26:45;100404.56;;;18.56;58.44
16190;BME280;41754;51.498;7.540;2023-05-23T02:29:12;100401.88;;;18.60;57.93
16190;BME280;41754;51.498;7.540;2023-05-23T02:31:40;100405.28;;;18.53;58.10
16190;BME280;41754;51.498;7.540;2023-05-23T02:34:08;100400.59;;;18.73;58.46
16190;BME280;41754;51.498;7.540;2023-05-23T02:36:38;100404.31;;;18.61;58.65
16190;BME280;41754;51.498;7.540;2023-05-23T02:39:09;100403.38;;;18.57;58.69
16190;BME280;41754;51.498;7.540;2023-05-23T02:41:37;100401.19;;;18.31;59.73
16190;BME280;41754;51.498;7.540;2023-05-23T02:44:04;100407.13;;;17.70;60.93
16190;BME280;41754;51.498;7.540;2023-05-23T02:46:32;100399.91;;;18.45;59.86
16190;BME280;41754;51.498;7.540;2023-05-23T02:49:02;100407.63;;;18.51;58.94
16190;BME280;41754;51.498;7.540;2023-05-23T02:51:29;100411.69;;;18.38;59.47
16190;BME280;41754;51.498;7.540;2023-05-23T02:53:59;100407.00;;;17.95;60.43
16190;BME280;41754;51.498;7.540;2023-05-23T02:56:28;100405.94;;;18.15;59.70
16190;BME280;41754;51.498;7.540;2023-05-23T02:58:56;100408.38;;;18.32;59.09
16190;BME280;41754;51.498;7.540;2023-05-23T03:01:23;100403.44;;;18.42;58.86
16190;BME280;41754;51.498;7.540;2023-05-23T03:03:51;100403.69;;;18.05;59.37
16190;BME280;41754;51.498;7.540;2023-05-23T03:06:20;100402.00;;;18.32;59.56
16190;BME280;41754;51.498;7.540;2023-05-23T03:08:48;100410.16;;;18.40;59.06
16190;BME280;41754;51.498;7.540;2023-05-23T03:11:18;100415.91;;;17.85;60.53
16190;BME280;41754;51.498;7.540;2023-05-23T03:13:48;100404.69;;;17.97;60.32
16190;BME280;41754;51.498;7.540;2023-05-23T03:16:16;100408.09;;;18.37;59.08
16190;BME280;41754;51.498;7.540;2023-05-23T03:18:44;100415.59;;;18.33;59.43
16190;BME280;41754;51.498;7.540;2023-05-23T03:21:11;100413.28;;;18.71;58.19
16190;BME280;41754;51.498;7.540;2023-05-23T03:23:39;100405.94;;;18.47;59.35
16190;BME280;41754;51.498;7.540;2023-05-23T03:26:07;100415.34;;;17.95;60.82
16190;BME280;41754;51.498;7.540;2023-05-23T03:28:36;100412.88;;;18.21;59.34
16190;BME280;41754;51.498;7.540;2023-05-23T03:31:04;100407.09;;;18.14;59.79
16190;BME280;41754;51.498;7.540;2023-05-23T03:33:32;100415.66;;;18.37;60.20
16190;BME280;41754;51.498;7.540;2023-05-23T03:36:00;100419.94;;;18.03;60.56
16190;BME280;41754;51.498;7.540;2023-05-23T03:38:28;100413.78;;;18.25;59.68
16190;BME280;41754;51.498;7.540;2023-05-23T03:40:56;100421.22;;;18.37;59.59
16190;BME280;41754;51.498;7.540;2023-05-23T03:43:23;100416.28;;;18.30;60.04
16190;BME280;41754;51.498;7.540;2023-05-23T03:45:53;100427.94;;;18.20;59.95
16190;BME280;41754;51.498;7.540;2023-05-23T03:48:21;100419.41;;;18.45;59.24
16190;BME280;41754;51.498;7.540;2023-05-23T03:50:49;100420.03;;;18.06;60.40
16190;BME280;41754;51.498;7.540;2023-05-23T03:53:17;100433.13;;;18.69;58.90
16190;BME280;41754;51.498;7.540;2023-05-23T03:55:45;100431.88;;;18.19;59.67
16190;BME280;41754;51.498;7.540;2023-05-23T03:58:13;100440.78;;;18.09;60.23
16190;BME280;41754;51.498;7.540;2023-05-23T04:00:43;100446.25;;;17.90;60.99
16190;BME280;41754;51.498;7.540;2023-05-23T04:03:15;100452.69;;;17.94;60.65
16190;BME280;41754;51.498;7.540;2023-05-23T04:05:43;100455.81;;;17.76;60.73
16190;BME280;41754;51.498;7.540;2023-05-23T04:08:12;100453.78;;;18.05;60.01
16190;BME280;41754;51.498;7.540;2023-05-23T04:10:41;100458.91;;;18.19;59.66
16190;BME280;41754;51.498;7.540;2023-05-23T04:13:10;100461.06;;;17.94;60.22
16190;BME280;41754;51.498;7.540;2023-05-23T04:15:40;100462.28;;;18.24;58.93
16190;BME280;41754;51.498;7.540;2023-05-23T04:18:11;100461.91;;;18.73;58.32
16190;BME280;41754;51.498;7.540;2023-05-23T04:20:42;100470.69;;;18.12;59.81
16190;BME280;41754;51.498;7.540;2023-05-23T04:23:10;100472.25;;;17.81;60.91
16190;BME280;41754;51.498;7.540;2023-05-23T04:25:40;100474.13;;;18.21;59.69
16190;BME280;41754;51.498;7.540;2023-05-23T04:28:14;100467.84;;;17.80;60.48
16190;BME280;41754;51.498;7.540;2023-05-23T04:30:43;100466.47;;;18.18;59.06
16190;BME280;41754;51.498;7.540;2023-05-23T04:33:13;100465.28;;;18.47;59.06
16190;BME280;41754;51.498;7.540;2023-05-23T04:35:45;100467.91;;;18.12;59.21
16190;BME280;41754;51.498;7.540;2023-05-23T04:38:14;100469.81;;;17.80;60.00
16190;BME280;41754;51.498;7.540;2023-05-23T04:40:43;100460.41;;;18.44;58.62
16190;BME280;41754;51.498;7.540;2023-05-23T04:43:29;100463.81;;;18.22;59.22
16190;BME280;41754;51.498;7.540;2023-05-23T04:46:14;100474.47;;;18.04;59.65
16190;BME280;41754;51.498;7.540;2023-05-23T04:48:43;100480.44;;;17.90;59.91
16190;BME280;41754;51.498;7.540;2023-05-23T04:51:13;100487.53;;;17.88;60.10
16190;BME280;41754;51.498;7.540;2023-05-23T04:53:50;100480.06;;;17.48;60.39
16190;BME280;41754;51.498;7.540;2023-05-23T04:56:18;100482.19;;;17.67;60.65
16190;BME280;41754;51.498;7.540;2023-05-23T04:58:48;100488.88;;;17.50;61.54
16190;BME280;41754;51.498;7.540;2023-05-23T05:01:16;100485.09;;;18.30;59.14
16190;BME280;41754;51.498;7.540;2023-05-23T05:03:44;100492.06;;;18.36;59.15
16190;BME280;41754;51.498;7.540;2023-05-23T05:06:14;100495.88;;;18.31;58.60
16190;BME280;41754;51.498;7.540;2023-05-23T05:08:43;100493.16;;;18.19;59.18
16190;BME280;41754;51.498;7.540;2023-05-23T05:11:11;100492.34;;;17.75;59.97
16190;BME280;41754;51.498;7.540;2023-05-23T05:13:40;100491.09;;;17.72;60.84
16190;BME280;41754;51.498;7.540;2023-05-23T05:16:08;100496.75;;;17.48;60.78
16190;BME280;41754;51.498;7.540;2023-05-23T05:18:37;100494.09;;;18.55;58.74
16190;BME280;41754;51.498;7.540;2023-05-23T05:21:05;100501.69;;;17.82;59.04
16190;BME280;41754;51.498;7.540;2023-05-23T05:23:37;100504.09;;;17.68;60.72
16190;BME280;41754;51.498;7.540;2023-05-23T05:26:07;100506.88;;;17.68;59.68
16190;BME280;41754;51.498;7.540;2023-05-23T05:28:34;100508.38;;;17.94;59.58
16190;BME280;41754;51.498;7.540;2023-05-23T05:31:03;100503.09;;;18.04;59.61
16190;BME280;41754;51.498;7.540;2023-05-23T05:33:34;100506.63;;;18.17;58.82
16190;BME280;41754;51.498;7.540;2023-05-23T05:36:13;100506.69;;;18.49;58.48
16190;BME280;41754;51.498;7.540;2023-05-23T05:38:43;100512.00;;;18.54;57.65
16190;BME280;41754;51.498;7.540;2023-05-23T05:41:11;100524.94;;;17.46;60.34
16190;BME280;41754;51.498;7.540;2023-05-23T05:43:46;100526.78;;;17.70;60.27
16190;BME280;41754;51.498;7.540;2023-05-23T05:46:14;100527.72;;;17.34;60.03
16190;BME280;41754;51.498;7.540;2023-05-23T05:48:42;100538.69;;;17.55;61.04
16190;BME280;41754;51.498;7.540;2023-05-23T05:51:12;100541.84;;;17.29;61.13
16190;BME280;41754;51.498;7.540;2023-05-23T05:53:40;100538.97;;;17.78;60.42
16190;BME280;41754;51.498;7.540;2023-05-23T05:56:10;100535.00;;;17.51;60.44
16190;BME280;41754;51.498;7.540;2023-05-23T05:58:38;100534.81;;;18.00;59.72
16190;BME280;41754;51.498;7.540;2023-05-23T06:01:07;100533.84;;;18.52;58.18
16190;BME280;41754;51.498;7.540;2023-05-23T06:03:35;100534.91;;;17.75;59.15
16190;BME280;41754;51.498;7.540;2023-05-23T06:06:03;100534.69;;;17.68;59.61
16190;BME280;41754;51.498;7.540;2023-05-23T06:08:32;100534.81;;;18.00;59.32
16190;BME280;41754;51.498;7.540;2023-05-23T06:11:00;100530.03;;;18.28;58.18
16190;BME280;41754;51.498;7.540;2023-05-23T06:13:30;100541.09;;;17.97;59.04
16190;BME280;41754;51.498;7.540;2023-05-23T06:15:58;100539.56;;;17.99;58.80
16190;BME280;41754;51.498;7.540;2023-05-23T06:18:26;100551.94;;;17.86;59.20
16190;BME280;41754;51.498;7.540;2023-05-23T06:20:55;100537.16;;;17.98;58.41
16190;BME280;41754;51.498;7.540;2023-05-23T06:23:22;100548.84;;;18.47;57.56
16190;BME280;41754;51.498;7.540;2023-05-23T06:25:50;100557.69;;;17.93;58.68
16190;BME280;41754;51.498;7.540;2023-05-23T06:28:18;100556.97;;;17.68;58.96
16190;BME280;41754;51.498;7.540;2023-05-23T06:30:48;100556.72;;;17.73;58.63
16190;BME280;41754;51.498;7.540;2023-05-23T06:33:16;100557.03;;;17.44;59.66
16190;BME280;41754;51.498;7.540;2023-05-23T06:35:44;100558.09;;;16.90;61.73
16190;BME280;41754;51.498;7.540;2023-05-23T06:38:12;100565.38;;;17.19;61.09
16190;BME280;41754;51.498;7.540;2023-05-23T06:40:43;100567.81;;;17.09;61.41
16190;BME280;41754;51.498;7.540;2023-05-23T06:43:12;100564.78;;;17.91;59.69
16190;BME280;41754;51.498;7.540;2023-05-23T06:45:44;100565.88;;;16.85;61.89
16190;BME280;41754;51.498;7.540;2023-05-23T06:48:14;100567.25;;;17.15;61.72
16190;BME280;41754;51.498;7.540;2023-05-23T06:50:43;100578.81;;;17.30;61.54
16190;BME280;41754;51.498;7.540;2023-05-23T06:53:12;100575.09;;;17.38;61.37
16190;BME280;41754;51.498;7.540;2023-05-23T06:55:45;100579.16;;;17.28;62.16
16190;BME280;41754;51.498;7.540;2023-05-23T06:58:16;100581.59;;;17.17;61.93
16190;BME280;41754;51.498;7.540;2023-05-23T07:00:45;100589.97;;;17.82;60.23
16190;BME280;41754;51.498;7.540;2023-05-23T07:03:36;100592.72;;;17.54;60.99
16190;BME280;41754;51.498;7.540;2023-05-23T07:06:07;100590.66;;;17.02;62.01
16190;BME280;41754;51.498;7.540;2023-05-23T07:08:36;100604.44;;;17.35;60.78
16190;BME280;41754;51.498;7.540;2023-05-23T07:11:04;100606.28;;;17.19;61.64
16190;BME280;41754;51.498;7.540;2023-05-23T07:13:37;100603.47;;;16.94;62.16
16190;BME280;41754;51.498;7.540;2023-05-23T07:16:05;100605.44;;;16.70;62.81
16190;BME280;41754;51.498;7.540;2023-05-23T07:18:39;100612.16;;;16.81;63.23
16190;BME280;41754;51.498;7.540;2023-05-23T07:21:07;100615.56;;;16.99;61.78
16190;BME280;41754;51.498;7.540;2023-05-23T07:23:36;100622.13;;;16.94;62.34
16190;BME280;41754;51.498;7.540;2023-05-23T07:26:04;100627.03;;;17.09;62.39
16190;BME280;41754;51.498;7.540;2023-05-23T07:28:48;100619.94;;;17.00;62.04
16190;BME280;41754;51.498;7.540;2023-05-23T07:31:17;100627.09;;;16.76;61.94
16190;BME280;41754;51.498;7.540;2023-05-23T07:33:47;100626.19;;;16.97;61.44
16190;BME280;41754;51.498;7.540;2023-05-23T07:36:21;100633.94;;;16.91;61.34
16190;BME280;41754;51.498;7.540;2023-05-23T07:38:50;100638.16;;;16.97;62.47
16190;BME280;41754;51.498;7.540;2023-05-23T07:41:18;100633.72;;;16.96;62.67
16190;BME280;41754;51.498;7.540;2023-05-23T07:43:47;100637.41;;;16.76;63.60
16190;BME280;41754;51.498;7.540;2023-05-23T07:46:15;100646.75;;;16.38;64.15
16190;BME280;41754;51.498;7.540;2023-05-23T07:48:44;100647.50;;;16.92;62.72
16190;BME280;41754;51.498;7.540;2023-05-23T07:51:13;100646.72;;;17.41;61.25
16190;BME280;41754;51.498;7.540;2023-05-23T07:53:48;100654.25;;;17.28;61.47
16190;BME280;41754;51.498;7.540;2023-05-23T07:56:17;100652.06;;;17.46;60.36
16190;BME280;41754;51.498;7.540;2023-05-23T07:58:45;100651.13;;;17.54;59.83
16190;BME280;41754;51.498;7.540;2023-05-23T08:01:13;100652.28;;;17.29;59.04
16190;BME280;41754;51.498;7.540;2023-05-23T08:04:07;100653.00;;;17.50;59.20
16190;BME280;41754;51.498;7.540;2023-05-23T08:06:44;100657.81;;;16.92;59.88
16190;BME280;41754;51.498;7.540;2023-05-23T08:09:37;100656.22;;;17.40;58.91
16190;BME280;41754;51.498;7.540;2023-05-23T08:12:06;100655.97;;;17.69;58.26
16190;BME280;41754;51.498;7.540;2023-05-23T08:14:35;100660.41;;;17.46;57.77
16190;BME280;41754;51.498;7.540;2023-05-23T08:17:22;100668.63;;;17.55;57.83
16190;BME280;41754;51.498;7.540;2023-05-23T08:19:51;100669.66;;;17.38;57.65
16190;BME280;41754;51.498;7.540;2023-05-23T08:22:20;100669.44;;;17.31;58.06
16190;BME280;41754;51.498;7.540;2023-05-23T08:24:48;100670.84;;;17.73;57.04
16190;BME280;41754;51.498;7.540;2023-05-23T08:27:16;100673.94;;;17.96;55.84
16190;BME280;41754;51.498;7.540;2023-05-23T08:29:48;100673.63;;;17.37;57.00
16190;BME280;41754;51.498;7.540;2023-05-23T08:32:16;100669.44;;;17.31;57.27
16190;BME280;41754;51.498;7.540;2023-05-23T08:34:44;100675.78;;;17.80;55.08
16190;BME280;41754;51.498;7.540;2023-05-23T08:37:12;100676.88;;;17.63;55.24
16190;BME280;41754;51.498;7.540;2023-05-23T08:39:42;100685.16;;;17.02;56.46
16190;BME280;41754;51.498;7.540;2023-05-23T08:42:29;100675.81;;;17.56;56.57
16190;BME280;41754;51.498;7.540;2023-05-23T08:44:57;100686.97;;;18.08;54.50
16190;BME280;41754;51.498;7.540;2023-05-23T08:47:26;100683.25;;;18.16;54.54
16190;BME280;41754;51.498;7.540;2023-05-23T08:50:01;100683.56;;;18.39;54.34
16190;BME280;41754;51.498;7.540;2023-05-23T08:52:31;100684.16;;;17.56;56.20
16190;BME280;41754;51.498;7.540;2023-05-23T08:55:01;100692.72;;;17.26;56.68
16190;BME280;41754;51.498;7.540;2023-05-23T08:57:30;100696.06;;;17.32;56.63
16190;BME280;41754;51.498;7.540;2023-05-23T09:00:08;100703.25;;;17.20;56.87
16190;BME280;41754;51.498;7.540;2023-05-23T09:02:42;100697.19;;;16.94;57.25
16190;BME280;41754;51.498;7.540;2023-05-23T09:05:25;100718.13;;;17.37;56.90
16190;BME280;41754;51.498;7.540;2023-05-23T09:07:53;100715.13;;;17.66;55.70
16190;BME280;41754;51.498;7.540;2023-05-23T09:10:24;100713.63;;;16.87;57.10
16190;BME280;41754;51.498;7.540;2023-05-23T09:12:56;100716.31;;;17.08;56.67
16190;BME280;41754;51.498;7.540;2023-05-23T09:15:24;100730.94;;;16.72;57.54
16190;BME280;41754;51.498;7.540;2023-05-23T09:17:58;100730.25;;;16.54;58.55
16190;BME280;41754;51.498;7.540;2023-05-23T09:20:27;100731.31;;;17.28;55.77
16190;BME280;41754;51.498;7.540;2023-05-23T09:22:58;100729.13;;;17.82;54.83
16190;BME280;41754;51.498;7.540;2023-05-23T09:25:31;100733.34;;;17.64;54.51
16190;BME280;41754;51.498;7.540;2023-05-23T09:27:59;100738.31;;;17.58;54.31
16190;BME280;41754;51.498;7.540;2023-05-23T09:30:33;100732.41;;;17.84;53.26
16190;BME280;41754;51.498;7.540;2023-05-23T09:33:01;100737.16;;;17.84;52.91
16190;BME280;41754;51.498;7.540;2023-05-23T09:35:32;100738.44;;;17.74;53.76
16190;BME280;41754;51.498;7.540;2023-05-23T09:38:00;100739.25;;;17.74;54.13
16190;BME280;41754;51.498;7.540;2023-05-23T09:40:31;100742.97;;;17.54;54.65
16190;BME280;41754;51.498;7.540;2023-05-23T09:43:03;100745.56;;;17.26;54.44
16190;BME280;41754;51.498;7.540;2023-05-23T09:45:33;100747.47;;;17.01;56.08
16190;BME280;41754;51.498;7.540;2023-05-23T09:48:01;100756.72;;;16.93;56.27
16190;BME280;41754;51.498;7.540;2023-05-23T09:50:32;100752.75;;;15.98;58.20
16190;BME280;41754;51.498;7.540;2023-05-23T09:53:02;100760.34;;;16.31;58.31
16190;BME280;41754;51.498;7.540;2023-05-23T09:55:31;100755.81;;;15.76;59.15
16190;BME280;41754;51.498;7.540;2023-05-23T09:57:59;100761.97;;;15.82;60.43
16190;BME280;41754;51.498;7.540;2023-05-23T10:00:27;100759.34;;;16.35;58.62
16190;BME280;41754;51.498;7.540;2023-05-23T10:03:04;100762.34;;;16.01;59.40
16190;BME280;41754;51.498;7.540;2023-05-23T10:05:40;100759.56;;;16.72;57.01
16190;BME280;41754;51.498;7.540;2023-05-23T10:08:13;100764.31;;;17.62;55.40
16190;BME280;41754;51.498;7.540;2023-05-23T10:14:00;100763.84;;;17.48;53.50
16190;BME280;41754;51.498;7.540;2023-05-23T10:16:39;100762.34;;;17.17;54.02
16190;BME280;41754;51.498;7.540;2023-05-23T10:19:19;100768.13;;;17.12;53.60
16190;BME280;41754;51.498;7.540;2023-05-23T10:21:54;100767.28;;;16.67;53.94
16190;BME280;41754;51.498;7.540;2023-05-23T10:24:25;100776.41;;;16.67;54.71
16190;BME280;41754;51.498;7.540;2023-05-23T10:26:54;100777.91;;;16.64;54.71
16190;BME280;41754;51.498;7.540;2023-05-23T10:29:24;100781.44;;;16.74;53.59
16190;BME280;41754;51.498;7.540;2023-05-23T10:31:54;100783.66;;;16.80;53.93
16190;BME280;41754;51.498;7.540;2023-05-23T10:34:28;100779.75;;;16.60;54.34
16190;BME280;41754;51.498;7.540;2023-05-23T10:37:01;100797.19;;;16.40;54.26
16190;BME280;41754;51.498;7.540;2023-05-23T10:39:41;100795.22;;;16.41;54.65
16190;BME280;41754;51.498;7.540;2023-05-23T10:42:16;100798.81;;;16.83;52.43
16190;BME280;41754;51.498;7.540;2023-05-23T10:44:47;100807.28;;;15.94;52.93
16190;BME280;41754;51.498;7.540;2023-05-23T10:47:24;100799.28;;;16.73;52.82
16190;BME280;41754;51.498;7.540;2023-05-23T10:49:53;100800.94;;;16.86;52.47
16190;BME280;41754;51.498;7.540;2023-05-23T10:52:23;100796.81;;;17.37;49.87
16190;BME280;41754;51.498;7.540;2023-05-23T10:54:54;100801.41;;;17.78;49.01
16190;BME280;41754;51.498;7.540;2023-05-23T10:57:25;100800.69;;;18.30;48.85
16190;BME280;41754;51.498;7.540;2023-05-23T10:59:55;100803.25;;;19.79;45.38
16190;BME280;41754;51.498;7.540;2023-05-23T11:02:25;100809.59;;;20.07;43.15
16190;BME280;41754;51.498;7.540;2023-05-23T11:05:18;100804.38;;;19.90;42.82
16190;BME280;41754;51.498;7.540;2023-05-23T11:08:05;100807.41;;;19.53;42.99
16190;BME280;41754;51.498;7.540;2023-05-23T11:10:52;100808.06;;;19.19;43.39
16190;BME280;41754;51.498;7.540;2023-05-23T11:13:21;100802.88;;;20.82;43.44
16190;BME280;41754;51.498;7.540;2023-05-23T11:15:50;100804.28;;;22.29;39.15
16190;BME280;41754;51.498;7.540;2023-05-23T11:18:20;100814.84;;;22.96;38.69
16190;BME280;41754;51.498;7.540;2023-05-23T11:20:51;100804.22;;;20.53;40.56
16190;BME280;41754;51.498;7.540;2023-05-23T11:23:20;100819.09;;;19.43;42.76
16190;BME280;41754;51.498;7.540;2023-05-23T11:25:50;100807.66;;;18.77;44.75
16190;BME280;41754;51.498;7.540;2023-05-23T11:28:19;100807.22;;;18.34;44.99
16190;BME280;41754;51.498;7.540;2023-05-23T11:30:48;100810.69;;;17.95;45.92
16190;BME280;41754;51.498;7.540;2023-05-23T11:33:17;100818.56;;;17.93;46.62
16190;BME280;41754;51.498;7.540;2023-05-23T11:35:47;100813.09;;;18.45;44.66
16190;BME280;41754;51.498;7.540;2023-05-23T11:38:17;100813.94;;;18.09;45.73
16190;BME280;41754;51.498;7.540;2023-05-23T11:40:45;100815.56;;;18.34;44.28
16190;BME280;41754;51.498;7.540;2023-05-23T11:43:15;100820.13;;;18.95;43.10
16190;BME280;41754;51.498;7.540;2023-05-23T11:45:43;100819.88;;;19.12;42.39
16190;BME280;41754;51.498;7.540;2023-05-23T11:48:14;100826.66;;;17.49;45.44
16190;BME280;41754;51.498;7.540;2023-05-23T11:50:46;100815.19;;;18.48;44.67
16190;BME280;41754;51.498;7.540;2023-05-23T11:53:15;100823.69;;;18.80;43.17
16190;BME280;41754;51.498;7.540;2023-05-23T11:55:50;100820.03;;;18.91;41.48
16190;BME280;41754;51.498;7.540;2023-05-23T11:58:20;100826.16;;;18.69;42.63
16190;BME280;41754;51.498;7.540;2023-05-23T12:00:48;100833.22;;;18.79;41.51
16190;BME280;41754;51.498;7.540;2023-05-23T12:03:20;100829.69;;;18.42;42.09
16190;BME280;41754;51.498;7.540;2023-05-23T12:05:50;100844.41;;;19.07;40.99
16190;BME280;41754;51.498;7.540;2023-05-23T12:08:17;100839.69;;;18.83;42.07
16190;BME280;41754;51.498;7.540;2023-05-23T12:10:50;100840.13;;;18.45;42.51
16190;BME280;41754;51.498;7.540;2023-05-23T12:13:19;100844.59;;;18.09;44.01
16190;BME280;41754;51.498;7.540;2023-05-23T12:15:53;100852.13;;;17.96;44.17
16190;BME280;41754;51.498;7.540;2023-05-23T12:18:22;100861.72;;;17.74;43.55
16190;BME280;41754;51.498;7.540;2023-05-23T12:20:51;100859.63;;;18.57;42.94
16190;BME280;41754;51.498;7.540;2023-05-23T12:23:20;100865.34;;;19.72;41.04
16190;BME280;41754;51.498;7.540;2023-05-23T12:25:49;100851.25;;;20.48;38.25
16190;BME280;41754;51.498;7.540;2023-05-23T12:28:18;100847.97;;;21.58;36.55
16190;BME280;41754;51.498;7.540;2023-05-23T12:30:46;100849.69;;;21.24;35.94
16190;BME280;41754;51.498;7.540;2023-05-23T12:33:17;100841.66;;;22.93;32.92
16190;BME280;41754;51.498;7.540;2023-05-23T12:35:45;100842.13;;;22.16;34.83
16190;BME280;41754;51.498;7.540;2023-05-23T12:38:15;100846.41;;;22.59;34.13
16190;BME280;41754;51.498;7.540;2023-05-23T12:40:43;100856.38;;;21.00;35.57
16190;BME280;41754;51.498;7.540;2023-05-23T12:43:14;100847.56;;;21.37;34.59
16190;BME280;41754;51.498;7.540;2023-05-23T12:45:42;100851.88;;;24.31;30.43
16190;BME280;41754;51.498;7.540;2023-05-23T12:48:10;100847.00;;;24.90;30.61
16190;BME280;41754;51.498;7.540;2023-05-23T12:50:38;100857.78;;;23.71;30.67
16190;BME280;41754;51.498;7.540;2023-05-23T12:53:06;100859.13;;;24.32;28.71
16190;BME280;41754;51.498;7.540;2023-05-23T12:55:35;100848.00;;;25.44;28.21
16190;BME280;41754;51.498;7.540;2023-05-23T12:58:03;100851.25;;;24.62;28.66
16190;BME280;41754;51.498;7.540;2023-05-23T13:00:32;100854.47;;;25.41;28.24
16190;BME280;41754;51.498;7.540;2023-05-23T13:03:00;100856.47;;;26.68;25.25
16190;BME280;41754;51.498;7.540;2023-05-23T13:05:28;100830.78;;;29.62;21.05
16190;BME280;41754;51.498;7.540;2023-05-23T13:07:55;100824.81;;;27.82;23.59
16190;BME280;41754;51.498;7.540;2023-05-23T13:10:25;100821.22;;;27.01;22.69